X  Close Metar Aviation Weather Data     KRYV Watertown Municipal Airport
Temperature
72°F Temperature
72°F Dewpoint
100% Humidity



Wind
6 MPH
10 KM/H
3 M/S
5 KTS



210°
SSW
Current Conditions

Clear Clear
Pressure 1016.62 (hPa) - 30.02 (inHg)
Visibility 9.9 (mile) - 16 (km)
Airport
Airport-code KRYV

Location: Watertown Municipal Airport
Distance: 8 (mi)

Metar:
KRYV 090715Z AUTO 21005KT 10SM CLR 23/23 A3002 RMK AO2 T02250225

Time: 09-08-2020 02:15 CDT